createdAt,value
2022-10-09T00:02:41.279Z,73.92
2022-10-09T00:07:45.828Z,74.26
2022-10-09T00:12:50.821Z,74.36
2022-10-09T00:17:55.410Z,74.31
2022-10-09T00:23:02.446Z,74.56
2022-10-09T00:28:06.814Z,74.69
2022-10-09T00:33:10.997Z,74.79
2022-10-09T00:38:15.505Z,74.87
2022-10-09T00:43:38.316Z,74.91
2022-10-09T00:48:41.763Z,75.07
2022-10-09T00:53:44.951Z,75.22
2022-10-09T00:58:53.829Z,75.24
2022-10-09T01:03:58.098Z,75.44
2022-10-09T01:09:15.788Z,75.53
2022-10-09T01:14:48.796Z,75.59
2022-10-09T01:20:01.565Z,75.84
2022-10-09T01:25:15.941Z,75.85
2022-10-09T01:30:19.231Z,76.05
2022-10-09T01:35:23.785Z,75.86
2022-10-09T01:40:29.323Z,76.34
2022-10-09T01:45:43.306Z,76.47
2022-10-09T01:50:53.419Z,76.46
2022-10-09T01:56:09.851Z,76.17
2022-10-09T02:01:39.220Z,76.05
2022-10-09T02:06:45.392Z,76.11
2022-10-09T02:11:55.344Z,75.97
2022-10-09T02:17:24.365Z,75.99
2022-10-09T02:22:34.035Z,76.07
2022-10-09T02:27:38.246Z,76.20
2022-10-09T02:32:44.522Z,76.06
2022-10-09T02:37:50.353Z,76.18
2022-10-09T02:42:54.912Z,75.89
2022-10-09T02:47:58.193Z,76.06
2022-10-09T02:53:02.718Z,76.14
2022-10-09T02:58:07.605Z,76.23
2022-10-09T03:03:11.541Z,76.48
2022-10-09T03:08:15.533Z,76.52
2022-10-09T03:13:19.993Z,76.52
2022-10-09T03:18:24.819Z,76.60
2022-10-09T03:23:29.044Z,76.51
2022-10-09T03:28:36.230Z,76.68
2022-10-09T03:33:40.819Z,76.75
2022-10-09T03:38:44.369Z,77.00
2022-10-09T03:43:48.696Z,76.89
2022-10-09T03:48:52.933Z,77.10
2022-10-09T03:53:57.347Z,77.42
2022-10-09T03:59:00.886Z,77.65
2022-10-09T04:04:04.665Z,77.79
2022-10-09T04:09:09.268Z,78.14
2022-10-09T04:14:13.513Z,78.07
2022-10-09T04:19:20.731Z,78.24
2022-10-09T04:24:25.143Z,78.59
2022-10-09T04:29:29.221Z,78.45
2022-10-09T04:34:33.845Z,78.29
2022-10-09T04:39:38.042Z,78.38
2022-10-09T04:44:42.634Z,78.62
2022-10-09T04:49:46.563Z,78.66
2022-10-09T04:54:50.325Z,78.60
2022-10-09T04:59:54.300Z,78.77
2022-10-09T05:05:00.591Z,78.91
2022-10-09T05:10:06.372Z,78.40
2022-10-09T05:15:11.508Z,78.46
2022-10-09T05:20:16.774Z,78.30
2022-10-09T05:25:22.154Z,78.39
2022-10-09T05:30:26.894Z,78.47
2022-10-09T05:35:31.571Z,78.65
2022-10-09T05:40:37.198Z,78.94
2022-10-09T05:45:41.582Z,78.87
2022-10-09T05:50:46.381Z,78.86
2022-10-09T05:55:50.466Z,78.89
2022-10-09T06:01:00.263Z,79.02
2022-10-09T06:06:06.011Z,78.60
2022-10-09T06:11:15.224Z,78.69
2022-10-09T06:16:19.235Z,79.02
2022-10-09T06:21:26.643Z,79.03
2022-10-09T06:26:30.606Z,78.74
2022-10-09T06:31:34.137Z,78.68
2022-10-09T06:36:37.402Z,78.92
2022-10-09T06:41:41.129Z,78.72
2022-10-09T06:46:46.170Z,78.91
2022-10-09T06:51:50.654Z,78.73
2022-10-09T06:56:55.718Z,78.88
2022-10-09T07:02:00.273Z,78.68
2022-10-09T07:07:04.141Z,78.69
2022-10-09T07:12:08.620Z,78.81
2022-10-09T07:17:12.732Z,78.89
2022-10-09T07:22:16.780Z,78.87
2022-10-09T07:27:21.136Z,78.61
2022-10-09T07:32:24.733Z,78.30
2022-10-09T07:37:28.315Z,78.46
2022-10-09T07:42:32.268Z,78.41
2022-10-09T07:47:36.964Z,78.19
2022-10-09T07:52:41.051Z,78.02
2022-10-09T07:57:46.127Z,77.79
2022-10-09T08:02:50.896Z,78.06
2022-10-09T08:07:55.554Z,78.08
2022-10-09T08:13:00.582Z,77.94
2022-10-09T08:18:04.984Z,77.65
2022-10-09T08:23:09.421Z,77.19
2022-10-09T08:28:13.936Z,77.29
2022-10-09T08:33:22.398Z,77.36
2022-10-09T08:38:46.230Z,77.31
2022-10-09T08:43:56.838Z,76.69
2022-10-09T08:49:03.841Z,76.68
2022-10-09T08:54:31.056Z,76.89
2022-10-09T08:59:35.251Z,76.61
2022-10-09T09:05:11.106Z,76.32
2022-10-09T09:10:21.277Z,75.98
2022-10-09T09:15:51.472Z,75.99
2022-10-09T09:21:20.708Z,75.45
2022-10-09T09:26:25.322Z,75.37
2022-10-09T09:31:36.369Z,74.95
2022-10-09T09:36:47.212Z,74.57
2022-10-09T09:41:51.492Z,74.03
2022-10-09T09:46:56.005Z,73.61
2022-10-09T09:52:02.026Z,73.16
2022-10-09T09:57:17.145Z,72.48
2022-10-09T10:02:28.724Z,71.34
2022-10-09T10:07:38.248Z,71.07
2022-10-09T10:12:54.127Z,70.73
2022-10-09T10:18:14.313Z,70.53
2022-10-09T10:23:24.277Z,70.33
2022-10-09T10:28:37.182Z,69.46
2022-10-09T10:33:43.492Z,69.22
2022-10-09T10:39:14.097Z,69.07
2022-10-09T10:44:36.595Z,68.64
2022-10-09T10:49:41.614Z,68.55
2022-10-09T10:55:28.984Z,67.82
2022-10-09T11:00:42.266Z,66.96
2022-10-09T11:06:19.859Z,66.32
2022-10-09T11:11:38.351Z,65.50
2022-10-09T11:17:20.658Z,65.21
2022-10-09T11:22:47.020Z,65.04
2022-10-09T11:28:16.384Z,65.06
2022-10-09T11:33:36.664Z,64.62
2022-10-09T11:38:53.980Z,64.02
2022-10-09T11:44:24.693Z,63.70
2022-10-09T11:49:40.837Z,62.73
2022-10-09T11:54:45.863Z,62.42
2022-10-09T11:59:50.906Z,62.19
2022-10-09T12:04:56.263Z,62.01
2022-10-09T12:10:27.072Z,62.49
2022-10-09T12:15:48.690Z,62.47
2022-10-09T12:20:55.612Z,62.31
2022-10-09T12:26:00.852Z,62.38
2022-10-09T12:31:16.613Z,62.26
2022-10-09T12:36:27.793Z,61.58
2022-10-09T12:41:35.044Z,61.39
2022-10-09T12:46:40.077Z,61.35
2022-10-09T12:51:55.332Z,61.22
2022-10-09T12:57:02.225Z,60.65
2022-10-09T13:02:12.534Z,60.80
2022-10-09T13:07:25.092Z,61.22
2022-10-09T13:12:31.000Z,60.97
2022-10-09T13:17:41.009Z,60.73
2022-10-09T13:23:06.978Z,60.66
2022-10-09T13:28:21.180Z,60.80
2022-10-09T13:33:24.809Z,60.86
2022-10-09T13:38:31.391Z,60.55
2022-10-09T13:43:37.327Z,60.55
2022-10-09T13:48:44.985Z,60.71
2022-10-09T13:53:50.957Z,60.89
2022-10-09T13:58:55.520Z,60.91
2022-10-09T14:03:59.575Z,60.85
2022-10-09T14:09:09.751Z,60.90
2022-10-09T14:14:13.312Z,61.11
2022-10-09T14:19:16.602Z,61.01
2022-10-09T14:24:20.998Z,60.85
2022-10-09T14:29:25.844Z,60.99
2022-10-09T14:34:29.561Z,61.02
2022-10-09T14:39:33.109Z,61.11
2022-10-09T14:44:36.730Z,61.33
2022-10-09T14:49:40.265Z,61.60
2022-10-09T14:54:44.482Z,61.89
2022-10-09T14:59:48.012Z,62.14
2022-10-09T15:04:52.317Z,62.12
2022-10-09T15:09:57.662Z,62.34
2022-10-09T15:15:02.696Z,62.57
2022-10-09T15:20:07.601Z,63.15
2022-10-09T15:25:14.154Z,63.40
2022-10-09T15:30:18.474Z,63.31
2022-10-09T15:35:31.867Z,63.92
2022-10-09T15:40:55.392Z,64.01
2022-10-09T15:46:12.296Z,64.46
2022-10-09T15:51:27.811Z,64.52
2022-10-09T15:56:40.406Z,64.87
2022-10-09T16:01:54.979Z,65.26
2022-10-09T16:07:10.491Z,65.36
2022-10-09T16:12:29.359Z,65.48
2022-10-09T16:17:43.089Z,65.67
2022-10-09T16:22:55.790Z,66.04
2022-10-09T16:28:13.806Z,66.33
2022-10-09T16:33:22.764Z,66.73
2022-10-09T16:38:32.759Z,67.13
2022-10-09T16:43:40.949Z,67.13
2022-10-09T16:48:45.467Z,67.15
2022-10-09T16:53:54.742Z,67.36
2022-10-09T16:59:00.728Z,67.99
2022-10-09T17:04:05.263Z,68.46
2022-10-09T17:09:14.034Z,68.64
2022-10-09T17:14:18.707Z,68.64
2022-10-09T17:19:23.508Z,68.88
2022-10-09T17:24:28.651Z,68.75
2022-10-09T17:29:32.963Z,68.82
2022-10-09T17:34:37.209Z,69.35
2022-10-09T17:39:43.686Z,69.29
2022-10-09T17:44:49.425Z,69.35
2022-10-09T17:49:52.972Z,69.74
2022-10-09T17:54:56.750Z,70.21
2022-10-09T18:00:02.322Z,70.11
2022-10-09T18:05:06.520Z,70.17
2022-10-09T18:10:10.043Z,70.38
2022-10-09T18:15:14.132Z,70.56
2022-10-09T18:20:18.440Z,70.57
2022-10-09T18:25:23.261Z,70.73
2022-10-09T18:30:28.392Z,70.76
2022-10-09T18:35:36.151Z,71.01
2022-10-09T18:40:45.579Z,70.78
2022-10-09T18:45:50.473Z,71.31
2022-10-09T18:50:54.998Z,71.49
2022-10-09T18:55:59.490Z,71.73
2022-10-09T19:01:07.208Z,71.77
2022-10-09T19:06:11.575Z,72.16
2022-10-09T19:11:15.996Z,72.31
2022-10-09T19:16:23.421Z,72.40
2022-10-09T19:21:28.143Z,72.52
2022-10-09T19:26:33.913Z,72.67
2022-10-09T19:31:39.057Z,72.74
2022-10-09T19:36:49.979Z,73.30
2022-10-09T19:41:56.646Z,73.29
2022-10-09T19:47:02.579Z,73.14
2022-10-09T19:52:10.930Z,73.48
2022-10-09T19:57:15.830Z,73.14
2022-10-09T20:02:21.784Z,73.60
2022-10-09T20:07:27.260Z,73.09
2022-10-09T20:12:32.111Z,73.60
2022-10-09T20:17:37.450Z,73.69
2022-10-09T20:22:41.502Z,74.05
2022-10-09T20:27:45.125Z,74.16
2022-10-09T20:32:49.624Z,73.78
2022-10-09T20:37:53.628Z,74.30
2022-10-09T20:42:57.773Z,74.42
2022-10-09T20:48:01.536Z,74.00
2022-10-09T20:53:05.741Z,73.80
2022-10-09T20:58:10.327Z,74.26
2022-10-09T21:03:15.284Z,74.41
2022-10-09T21:08:19.130Z,74.60
2022-10-09T21:13:23.476Z,74.78
2022-10-09T21:18:28.241Z,74.65
2022-10-09T21:23:32.113Z,74.89
2022-10-09T21:28:35.750Z,74.97
2022-10-09T21:33:39.723Z,75.01
2022-10-09T21:38:44.022Z,74.62
2022-10-09T21:43:48.902Z,74.54
2022-10-09T21:48:52.837Z,74.91
2022-10-09T21:53:57.766Z,74.72
2022-10-09T21:59:02.572Z,75.18
2022-10-09T22:04:07.015Z,75.10
2022-10-09T22:09:12.662Z,75.39
2022-10-09T22:14:16.488Z,75.00
2022-10-09T22:19:20.476Z,74.98
2022-10-09T22:24:28.952Z,75.22
2022-10-09T22:29:33.968Z,75.17
2022-10-09T22:34:38.836Z,75.02
2022-10-09T22:39:42.605Z,75.13
2022-10-09T22:44:47.125Z,75.22
2022-10-09T22:49:52.187Z,75.38
2022-10-09T22:54:56.597Z,75.57
2022-10-09T23:00:00.614Z,75.59
2022-10-09T23:05:07.554Z,75.46
2022-10-09T23:10:11.611Z,75.54
2022-10-09T23:15:15.522Z,76.43
2022-10-09T23:20:19.601Z,76.29
2022-10-09T23:25:23.838Z,76.09
2022-10-09T23:30:28.532Z,76.31
2022-10-09T23:35:32.471Z,76.12
2022-10-09T23:40:36.931Z,76.50
2022-10-09T23:45:41.710Z,75.85
2022-10-09T23:50:45.144Z,76.06
2022-10-09T23:55:49.364Z,76.58
